Green Valley, California
Current Conditions -  °F | °C
As of 8:51 PM on Sunday 21 Dec 2014 (Local Time) from KVNY Reporting Station
Clear Clear  
Wind Chill: 66°   Ceiling: Unl
Heat Index: 66°   Visibility: 10mi
Dew Point: 45°   Wind: 13mph
Humidity: 47%   Direction: 330°NNW
Pressure: 30.06"   Gusts: 21mph
Location:  34.446°N, 118.517°W
Report Text: KVNY 220451Z 33011G18KT 10SM CLR 19/07 A3006 RMK AO2 PK WND 34027/0352 SLP173 T01890072
Loading
Personal Weather Stations






























Interactive Weather Map New forecast layout! Learn more

10-Day Weather Forecast

Advertisements
Track Severe Weather on mobile